Accueil
METAR-TAF:

METAR-TAF

Aéroports :

Meierwik

Glücksburg, Allemagne

latitude: 54-50N, longitude: 009-30E, altitude: 27 m

Observation

Le bulletin a été fait il y a 29 minutes, à 15:20 UTC
Vent 4 kt de nord-est
Température 25°C
Humidité 32%
Pression 1015 hPa
Visibilité 10 km ou plus

METAR: ETGG 021520Z AUTO 04004KT 9999 // ////// 25/07 Q1015 ///

Heure: 17:49 (15:49 UTC)


TAF: absent

Observations et prévisions météorologiques de plus de 4000 aéroports (messages METAR et TAF).

Les stations disponibles sont représentées par des disques jaunes et rouges sur la carte.

Passer la souris dessus pour voir le nom de la station.

Cliquer dessus pour voir les observations et prévisions météorologiques.

Pour changer de carte: cliquez sur les boutons verts avec une croix noire pour zoomer, sur le bouton vert avec un tiret pour effectuer un zoom arrière, ou sur les flèches vertes pour les cartes adjacentes.


METAR-TAF: